Jefferson City, MO

10:46 AM CST on January 28, 2015 (GMT -0600)
ALGOA RD BOTTOMS | Change Station
CLOSE
Current Station
Personal Weather Station
Location: Jefferson City, MO
Elevation: 610 ft
Nearby Weather Stations

Elev 610 ft 38.55 °N, 92.09 °W | Updated 9 minutes ago

Clear
Clear
46.7 °F
Feels Like 43 °F
N
7.3
Wind Variable Wind from East

Today
High -- | Low -- °F
--% Chance of Precip.
Yesterday
High -- | Low -- °F
Precip. -- in
7:17 AM 5:26 PM
Waxing Gibbous, 66% visible
Pressure 30.09 in
Visibility 10.0 miles
Clouds Clear
Windchill 43 °F
Dew Point 35 °F
Humidity 63%
Rainfall 0.00 in
Snow Depth Not available.
UV 2 out of 12
Pollen 1.80 out of 12
Air Quality Not available.
Flu Activity Not available.
METAR KJEF 281553Z 15010KT 10SM CLR 06/M01 A3011 RMK AO2 SLP189 T00561006

More Conditions Fewer Conditions

Pressure 30.09 in
Visibility 10.0 miles
Clouds Clear
Windchill 43 °F
Dew Point 35 °F
Humidity 63%
Rainfall 0.00 in
Snow Depth Not available.
UV 2 out of 12
Pollen 1.80 out of 12
Air Quality Not available.
Flu Activity Not available.
METAR KJEF 281553Z 15010KT 10SM CLR 06/M01 A3011 RMK AO2 SLP189 T00561006

More Conditions Fewer Conditions

10-Day Weather Forecast

Almanac

Astronomy

Jan. 28, 2015 Rise Set
Actual Time
Civil Twilight
Nautical Twilight
Astronomical Twilight
Moon
Length of Visible Light
Length of Day
Tomorrow will be .
, % of the Moon is Illuminated

Today's Extremes

State Highs State Lows

Community

WunderPhotos

Upload Photos

1,791,197 photos uploaded!

WunderBlogs® & News

Nearby

Air Quality

  Air Quality AQ Index Pollutant
Not available.

Snow Depth

Station Depth Elevation

Earthquake Activity

City Distance Mag. Time & Date
Minimum magnitude displayed is 2.5.

Coastal Water Temperatures

Place Temperature

Nearby Weather Stations